Time;durP1;ratioP1;P1;durP2;ratioP2;P2;SDS_P1;SDS_P2;PMS_P1;PMS_P2;Temp;Humidity;BMP_temperature;BMP_pressure;BME280_temperature;BME280_humidity;BME280_pressure;Samples;Min_cycle;Max_cycle;Signal;HPM_P1;HPM_P2
2023/04/14 00:01:34;;;;;;;6.20;2.03;;;;;;;;;;5012541;28;20057;-76
2023/04/14 00:04:00;;;;;;;5.00;1.80;;;;;;;;;;5009319;28;20058;-76
2023/04/14 00:06:27;;;;;;;8.65;2.67;;;;;;;;;;5004548;28;20057;-76
2023/04/14 00:08:53;;;;;;;6.85;2.00;;;;;;;;;;5005996;28;20050;-76
2023/04/14 00:11:20;;;;;;;13.52;2.35;;;;;;;;;;5004869;28;20059;-76
2023/04/14 00:13:46;;;;;;;4.93;2.00;;;;;;;;;;5005489;28;20060;-76
2023/04/14 00:16:12;;;;;;;8.60;2.45;;;;;;;;;;5004517;28;20062;-76
2023/04/14 00:18:39;;;;;;;7.82;1.88;;;;;;;;;;5015720;28;20509;-76
2023/04/14 00:21:05;;;;;;;9.38;2.25;;;;;;;;;;5024851;28;20057;-76
2023/04/14 00:23:32;;;;;;;5.90;2.20;;;;;;;;;;5014423;28;20621;-76
2023/04/14 00:25:58;;;;;;;6.82;2.08;;;;;;;;;;5005103;28;20414;-76
2023/04/14 00:28:24;;;;;;;6.30;2.42;;;;;;;;;;5018397;28;20042;-76
2023/04/14 00:30:51;;;;;;;10.77;2.53;;;;;;;;;;5025379;28;20896;-76
2023/04/14 00:33:17;;;;;;;4.43;1.90;;;;;;;;;;5024698;28;20140;-76
2023/04/14 00:35:43;;;;;;;7.57;2.15;;;;;;;;;;5024619;28;20054;-76
2023/04/14 00:38:10;;;;;;;6.28;2.45;;;;;;;;;;5012068;28;20054;-76
2023/04/14 00:40:36;;;;;;;8.70;2.70;;;;;;;;;;5005485;28;20046;-76
2023/04/14 00:43:02;;;;;;;8.93;2.63;;;;;;;;;;5005861;28;20054;-76
2023/04/14 00:45:29;;;;;;;10.10;2.90;;;;;;;;;;5005686;28;20050;-76
2023/04/14 00:47:56;;;;;;;10.32;3.42;;;;;;;;;;5018253;28;20077;-76
2023/04/14 00:50:23;;;;;;;6.35;2.63;;;;;;;;;;5013094;28;20563;-76
2023/04/14 00:52:51;;;;;;;7.57;2.85;;;;;;;;;;5005637;28;20050;-76
2023/04/14 00:55:18;;;;;;;7.18;3.10;;;;;;;;;;5003680;28;20077;-76
2023/04/14 00:57:45;;;;;;;6.60;3.00;;;;;;;;;;5023952;28;20147;-76
2023/04/14 01:00:12;;;;;;;6.70;2.75;;;;;;;;;;5026268;28;20050;-76
2023/04/14 01:02:39;;;;;;;7.22;2.88;;;;;;;;;;5022514;28;20166;-76
2023/04/14 01:05:06;;;;;;;8.52;3.10;;;;;;;;;;5014585;28;20058;-76
2023/04/14 01:07:32;;;;;;;7.50;3.00;;;;;;;;;;5020581;28;20046;-76
2023/04/14 01:09:59;;;;;;;9.60;3.72;;;;;;;;;;5025149;28;20057;-76
2023/04/14 01:12:45;;;;;;;7.03;3.20;;;;;;;;;;5022976;28;20169;-76
2023/04/14 01:15:11;;;;;;;8.75;3.70;;;;;;;;;;5021321;28;20049;-76
2023/04/14 01:17:44;;;;;;;9.70;3.15;;;;;;;;;;5023709;28;20054;-76
2023/04/14 01:20:29;;;;;;;12.25;3.90;;;;;;;;;;5018809;28;20055;-76
2023/04/14 01:23:01;;;;;;;10.82;3.85;;;;;;;;;;5023737;28;20072;-76
2023/04/14 01:25:41;;;;;;;7.72;3.30;;;;;;;;;;5023686;28;20058;-76
2023/04/14 01:28:07;;;;;;;9.88;3.33;;;;;;;;;;5018578;28;20084;-76
2023/04/14 01:30:58;;;;;;;7.13;3.25;;;;;;;;;;5008353;28;20050;-76
2023/04/14 01:33:25;;;;;;;9.50;3.78;;;;;;;;;;5008838;28;20786;-76
2023/04/14 01:35:55;;;;;;;7.95;3.22;;;;;;;;;;5022309;28;20050;-76
2023/04/14 01:38:26;;;;;;;10.38;3.65;;;;;;;;;;5022068;28;20060;-76
2023/04/14 01:40:55;;;;;;;11.63;3.92;;;;;;;;;;5010212;28;20046;-76
2023/04/14 01:43:32;;;;;;;9.98;3.40;;;;;;;;;;5004261;28;20497;-76
2023/04/14 01:46:02;;;;;;;7.72;3.85;;;;;;;;;;5014819;28;20058;-76
2023/04/14 01:48:29;;;;;;;9.50;3.87;;;;;;;;;;5021417;28;20060;-76
2023/04/14 01:50:57;;;;;;;9.05;3.80;;;;;;;;;;5007864;28;20057;-76
2023/04/14 01:53:24;;;;;;;11.75;3.83;;;;;;;;;;5022551;28;20152;-76
2023/04/14 01:55:51;;;;;;;8.65;4.00;;;;;;;;;;5004661;28;20069;-76
2023/04/14 01:58:19;;;;;;;12.00;4.60;;;;;;;;;;5018747;28;20053;-76
2023/04/14 02:00:46;;;;;;;10.48;4.00;;;;;;;;;;5022858;28;20045;-76
2023/04/14 02:03:13;;;;;;;10.02;3.80;;;;;;;;;;5013772;28;20224;-76
2023/04/14 02:05:40;;;;;;;10.82;4.13;;;;;;;;;;5019488;28;20049;-76
2023/04/14 02:08:09;;;;;;;8.05;4.20;;;;;;;;;;5023148;28;20045;-76
2023/04/14 02:10:36;;;;;;;9.18;4.55;;;;;;;;;;5014833;28;20054;-76
2023/04/14 02:13:03;;;;;;;9.48;3.90;;;;;;;;;;5023370;28;20053;-76
2023/04/14 02:15:30;;;;;;;8.73;4.22;;;;;;;;;;5016426;28;20302;-76
2023/04/14 02:17:57;;;;;;;8.77;4.30;;;;;;;;;;5022974;28;20065;-76
2023/04/14 02:20:25;;;;;;;12.30;4.80;;;;;;;;;;5023997;28;20087;-76
2023/04/14 02:22:52;;;;;;;13.23;4.80;;;;;;;;;;5006314;28;20050;-76
2023/04/14 02:25:20;;;;;;;13.60;5.00;;;;;;;;;;5004712;28;20164;-76
2023/04/14 02:27:53;;;;;;;11.77;5.25;;;;;;;;;;5004086;28;20051;-76
2023/04/14 02:30:26;;;;;;;10.13;5.10;;;;;;;;;;5004424;28;20059;-76
2023/04/14 02:32:56;;;;;;;13.23;5.38;;;;;;;;;;5018685;28;20124;-76
2023/04/14 02:35:27;;;;;;;10.87;5.33;;;;;;;;;;5005157;28;20860;-76
2023/04/14 02:37:53;;;;;;;;;;;;;;;;;;5004752;28;21114;-76
2023/04/14 02:40:21;;;;;;;13.98;4.95;;;;;;;;;;5001651;28;46732;-76
2023/04/14 02:42:51;;;;;;;10.40;4.68;;;;;;;;;;5017297;28;20123;-76
2023/04/14 02:45:20;;;;;;;11.10;5.35;;;;;;;;;;5023064;28;20053;-76
2023/04/14 02:47:48;;;;;;;11.95;5.38;;;;;;;;;;5023765;28;20098;-75
2023/04/14 02:50:15;;;;;;;14.30;6.00;;;;;;;;;;5003726;28;20058;-75
2023/04/14 02:52:42;;;;;;;13.63;5.15;;;;;;;;;;5017342;28;20970;-76
2023/04/14 02:55:09;;;;;;;13.90;5.25;;;;;;;;;;5003538;28;20055;-76
2023/04/14 02:57:36;;;;;;;12.77;5.30;;;;;;;;;;5004184;28;20061;-77
2023/04/14 03:00:02;;;;;;;14.52;5.25;;;;;;;;;;5002462;28;20054;-77
2023/04/14 03:02:29;;;;;;;15.57;5.53;;;;;;;;;;5006195;28;20165;-77
2023/04/14 03:04:56;;;;;;;14.48;4.80;;;;;;;;;;5004468;28;20060;-77
2023/04/14 03:07:23;;;;;;;12.75;5.03;;;;;;;;;;5023073;28;20104;-77
2023/04/14 03:09:50;;;;;;;13.20;5.03;;;;;;;;;;5020734;28;20053;-77
2023/04/14 03:12:17;;;;;;;12.35;5.05;;;;;;;;;;5007436;28;20054;-77
2023/04/14 03:14:44;;;;;;;15.25;5.53;;;;;;;;;;5012283;28;20602;-77
2023/04/14 03:17:13;;;;;;;11.15;4.65;;;;;;;;;;5002945;28;20501;-76
2023/04/14 03:19:41;;;;;;;11.25;5.00;;;;;;;;;;5004835;28;20583;-77
2023/04/14 03:22:09;;;;;;;10.07;4.93;;;;;;;;;;5013868;28;20054;-77
2023/04/14 03:24:36;;;;;;;14.50;4.57;;;;;;;;;;5023354;28;20057;-76
2023/04/14 03:27:08;;;;;;;15.05;5.20;;;;;;;;;;5022157;28;20543;-77
2023/04/14 03:29:39;;;;;;;10.68;4.85;;;;;;;;;;5022598;28;20058;-77
2023/04/14 03:32:06;;;;;;;11.95;4.55;;;;;;;;;;5022940;28;20137;-77
2023/04/14 03:34:33;;;;;;;12.85;4.18;;;;;;;;;;5025922;28;20583;-77
2023/04/14 03:36:59;;;;;;;12.02;4.97;;;;;;;;;;5024394;28;20065;-77
2023/04/14 03:39:27;;;;;;;11.57;4.53;;;;;;;;;;5021231;28;20078;-77
2023/04/14 03:41:54;;;;;;;10.27;4.22;;;;;;;;;;5013415;28;20517;-77
2023/04/14 03:44:21;;;;;;;11.40;4.68;;;;;;;;;;5026680;28;20057;-77
2023/04/14 03:46:48;;;;;;;13.50;5.28;;;;;;;;;;5024393;28;20055;-77
2023/04/14 03:49:16;;;;;;;14.48;5.32;;;;;;;;;;5021859;28;20073;-77
2023/04/14 03:51:43;;;;;;;13.05;4.70;;;;;;;;;;5021552;28;20058;-77
2023/04/14 03:54:11;;;;;;;10.88;4.70;;;;;;;;;;5005360;28;20054;-76
2023/04/14 03:56:40;;;;;;;12.95;4.82;;;;;;;;;;5025222;28;21001;-77
2023/04/14 03:59:10;;;;;;;13.77;4.28;;;;;;;;;;5007981;28;20058;-77
2023/04/14 04:01:38;;;;;;;13.90;5.68;;;;;;;;;;5018037;28;20997;-77
2023/04/14 04:04:05;;;;;;;12.57;4.28;;;;;;;;;;5019293;28;20054;-77
2023/04/14 04:06:32;;;;;;;12.02;4.47;;;;;;;;;;5005947;28;20501;-77
2023/04/14 04:09:00;;;;;;;9.98;5.22;;;;;;;;;;5012002;28;20417;-77
2023/04/14 04:11:28;;;;;;;12.23;4.55;;;;;;;;;;5012913;28;20448;-77
2023/04/14 04:13:56;;;;;;;10.05;4.40;;;;;;;;;;5016306;28;20190;-77
2023/04/14 04:16:23;;;;;;;12.82;5.03;;;;;;;;;;5017587;28;20104;-76
2023/04/14 04:18:50;;;;;;;15.65;4.60;;;;;;;;;;5024250;28;20057;-76
2023/04/14 04:21:17;;;;;;;12.98;5.03;;;;;;;;;;5008600;28;20093;-76
2023/04/14 04:23:49;;;;;;;12.68;4.60;;;;;;;;;;5005135;28;20141;-76
2023/04/14 04:26:17;;;;;;;14.32;5.32;;;;;;;;;;5005439;28;20117;-77
2023/04/14 04:28:43;;;;;;;12.35;4.70;;;;;;;;;;5015623;28;20061;-76
2023/04/14 04:31:11;;;;;;;15.93;5.03;;;;;;;;;;5014011;28;20061;-77
2023/04/14 04:33:37;;;;;;;12.60;5.35;;;;;;;;;;5005500;28;20050;-77
2023/04/14 04:36:05;;;;;;;17.30;5.50;;;;;;;;;;5009904;28;20085;-76
2023/04/14 04:38:31;;;;;;;12.73;5.88;;;;;;;;;;5022829;28;20054;-77
2023/04/14 04:40:58;;;;;;;12.25;5.75;;;;;;;;;;5011137;28;20054;-77
2023/04/14 04:43:24;;;;;;;12.50;5.85;;;;;;;;;;5010834;28;21029;-77
2023/04/14 04:45:57;;;;;;;11.80;5.07;;;;;;;;;;5023884;28;20064;-77
2023/04/14 04:48:24;;;;;;;19.33;6.25;;;;;;;;;;5012927;28;20479;-77
2023/04/14 04:50:50;;;;;;;12.45;5.65;;;;;;;;;;5025053;28;20061;-77
2023/04/14 04:53:16;;;;;;;13.32;6.00;;;;;;;;;;5023651;28;20066;-77
2023/04/14 04:55:43;;;;;;;17.50;6.82;;;;;;;;;;5007419;28;21033;-77
2023/04/14 04:58:10;;;;;;;18.77;6.82;;;;;;;;;;5005263;28;20057;-76
2023/04/14 05:00:36;;;;;;;14.23;6.68;;;;;;;;;;5022638;28;20560;-77
2023/04/14 05:03:02;;;;;;;15.57;6.68;;;;;;;;;;5025350;28;20519;-77
2023/04/14 05:05:29;;;;;;;15.80;6.55;;;;;;;;;;5017045;28;20054;-77
2023/04/14 05:07:55;;;;;;;13.23;6.20;;;;;;;;;;5005337;28;20054;-77
2023/04/14 05:10:22;;;;;;;14.75;6.43;;;;;;;;;;5007115;28;20054;-77
2023/04/14 05:12:48;;;;;;;14.43;5.72;;;;;;;;;;5003511;28;20061;-77
2023/04/14 05:15:15;;;;;;;15.40;6.47;;;;;;;;;;5008298;28;20053;-77
2023/04/14 05:17:42;;;;;;;17.60;6.68;;;;;;;;;;5024146;28;20108;-77
2023/04/14 05:20:09;;;;;;;18.35;6.40;;;;;;;;;;5024328;28;20050;-77
2023/04/14 05:22:35;;;;;;;18.20;6.75;;;;;;;;;;5022020;28;20057;-77
2023/04/14 05:25:02;;;;;;;17.10;6.55;;;;;;;;;;5005924;28;20085;-77
2023/04/14 05:27:28;;;;;;;15.07;6.38;;;;;;;;;;5016751;28;20782;-77
2023/04/14 05:29:55;;;;;;;13.23;6.30;;;;;;;;;;5002646;28;20054;-77
2023/04/14 05:32:21;;;;;;;15.45;6.35;;;;;;;;;;5004380;28;20744;-77
2023/04/14 05:34:47;;;;;;;19.83;7.22;;;;;;;;;;5013378;28;20443;-77
2023/04/14 05:37:14;;;;;;;18.10;8.13;;;;;;;;;;5022233;28;20053;-77
2023/04/14 05:39:40;;;;;;;22.92;8.43;;;;;;;;;;5019468;28;20053;-77
2023/04/14 05:42:06;;;;;;;20.08;6.78;;;;;;;;;;5021125;28;20060;-78
2023/04/14 05:44:33;;;;;;;18.52;7.53;;;;;;;;;;5020707;28;20053;-77
2023/04/14 05:46:59;;;;;;;15.07;7.72;;;;;;;;;;5020810;28;20045;-77
2023/04/14 05:49:26;;;;;;;19.02;7.70;;;;;;;;;;5002526;28;20085;-77
2023/04/14 05:51:55;;;;;;;18.00;7.50;;;;;;;;;;5003891;28;20050;-77
2023/04/14 05:54:21;;;;;;;17.35;6.18;;;;;;;;;;5008291;28;20583;-77
2023/04/14 05:56:48;;;;;;;16.38;6.07;;;;;;;;;;5020224;28;20050;-77
2023/04/14 05:59:15;;;;;;;15.10;6.20;;;;;;;;;;5022111;28;20050;-77
2023/04/14 06:01:42;;;;;;;22.23;6.82;;;;;;;;;;5019717;28;20061;-77
2023/04/14 06:04:08;;;;;;;13.75;5.65;;;;;;;;;;5024242;28;20081;-77
2023/04/14 06:06:35;;;;;;;11.73;5.50;;;;;;;;;;5022036;28;20058;-77
2023/04/14 06:09:02;;;;;;;21.90;6.30;;;;;;;;;;5020642;28;20058;-77
2023/04/14 06:11:28;;;;;;;13.43;6.55;;;;;;;;;;5002838;28;20050;-78
2023/04/14 06:13:55;;;;;;;17.65;6.47;;;;;;;;;;5003102;28;21192;-77
2023/04/14 06:16:21;;;;;;;17.88;6.85;;;;;;;;;;5021444;28;20069;-77
2023/04/14 06:18:48;;;;;;;16.85;6.15;;;;;;;;;;5022461;28;20488;-77
2023/04/14 06:21:14;;;;;;;12.70;5.13;;;;;;;;;;5021843;28;20057;-78
2023/04/14 06:23:40;;;;;;;14.32;5.43;;;;;;;;;;5021452;28;20068;-78
2023/04/14 06:26:07;;;;;;;11.32;5.15;;;;;;;;;;5003621;28;20444;-78
2023/04/14 06:28:33;;;;;;;12.95;5.57;;;;;;;;;;5018620;28;20516;-78
2023/04/14 06:31:00;;;;;;;16.88;4.72;;;;;;;;;;5009961;28;20057;-78
2023/04/14 06:33:26;;;;;;;12.57;4.90;;;;;;;;;;5023399;28;20132;-78
2023/04/14 06:35:53;;;;;;;11.43;4.70;;;;;;;;;;5010563;28;20058;-78
2023/04/14 06:38:20;;;;;;;14.35;4.93;;;;;;;;;;5020371;28;20054;-78
2023/04/14 06:40:46;;;;;;;18.83;5.35;;;;;;;;;;5020728;28;20038;-78
2023/04/14 06:43:13;;;;;;;15.93;5.05;;;;;;;;;;5021943;28;20058;-78
2023/04/14 06:45:40;;;;;;;17.30;4.55;;;;;;;;;;5008301;28;20074;-78
2023/04/14 06:48:06;;;;;;;14.35;4.93;;;;;;;;;;5020357;28;20524;-78
2023/04/14 06:50:33;;;;;;;11.55;4.03;;;;;;;;;;5006927;28;20082;-78
2023/04/14 06:52:59;;;;;;;13.88;3.63;;;;;;;;;;5016530;28;20591;-78
2023/04/14 06:55:26;;;;;;;13.20;4.43;;;;;;;;;;5005190;28;20141;-78
2023/04/14 06:57:52;;;;;;;11.07;3.85;;;;;;;;;;5004210;28;20050;-78
2023/04/14 07:00:19;;;;;;;8.25;3.95;;;;;;;;;;5010912;28;20969;-79
2023/04/14 07:02:45;;;;;;;7.47;2.83;;;;;;;;;;5014861;28;20057;-78
2023/04/14 07:05:12;;;;;;;12.90;3.60;;;;;;;;;;5003276;28;20125;-79
2023/04/14 07:07:39;;;;;;;11.48;3.45;;;;;;;;;;5007788;28;21036;-78
2023/04/14 07:10:05;;;;;;;11.75;3.13;;;;;;;;;;5010945;28;20065;-79
2023/04/14 07:12:32;;;;;;;10.13;3.10;;;;;;;;;;5007541;28;20055;-79
2023/04/14 07:14:58;;;;;;;8.98;3.13;;;;;;;;;;5006922;28;20054;-79
2023/04/14 07:17:25;;;;;;;8.35;3.05;;;;;;;;;;5024555;28;20621;-79
2023/04/14 07:19:51;;;;;;;10.85;3.00;;;;;;;;;;5019589;28;20046;-79
2023/04/14 07:22:17;;;;;;;8.43;2.38;;;;;;;;;;5020215;28;20050;-77
2023/04/14 07:24:44;;;;;;;10.02;2.42;;;;;;;;;;5021194;28;20527;-77
2023/04/14 07:27:13;;;;;;;7.65;2.47;;;;;;;;;;5010850;28;20563;-77
2023/04/14 07:29:41;;;;;;;10.50;2.60;;;;;;;;;;5016245;28;20058;-77
2023/04/14 07:32:07;;;;;;;11.48;2.85;;;;;;;;;;5016376;28;20529;-77
2023/04/14 07:34:34;;;;;;;9.30;2.20;;;;;;;;;;5012275;28;20065;-77
2023/04/14 07:37:00;;;;;;;8.48;2.17;;;;;;;;;;5013656;28;20165;-77
2023/04/14 07:39:26;;;;;;;11.82;2.10;;;;;;;;;;5012038;28;20060;-77
2023/04/14 07:41:53;;;;;;;6.80;2.05;;;;;;;;;;5012458;28;20053;-77
2023/04/14 07:44:20;;;;;;;8.95;2.40;;;;;;;;;;5019077;28;20064;-77
2023/04/14 07:46:46;;;;;;;10.73;2.20;;;;;;;;;;5006720;28;20062;-77
2023/04/14 07:49:13;;;;;;;7.63;2.40;;;;;;;;;;5013200;28;20126;-77
2023/04/14 07:51:39;;;;;;;11.55;3.25;;;;;;;;;;5007484;28;20085;-77
2023/04/14 07:54:05;;;;;;;7.72;2.05;;;;;;;;;;5015058;28;20053;-77
2023/04/14 07:56:32;;;;;;;10.65;2.60;;;;;;;;;;5027583;28;20061;-78
2023/04/14 07:58:58;;;;;;;12.77;2.58;;;;;;;;;;5023959;28;20053;-77
2023/04/14 08:01:25;;;;;;;6.68;1.83;;;;;;;;;;5025021;28;20125;-77
2023/04/14 08:03:52;;;;;;;7.28;2.00;;;;;;;;;;5019415;28;20136;-77
2023/04/14 08:06:19;;;;;;;10.77;2.10;;;;;;;;;;5008329;28;20053;-78
2023/04/14 08:08:46;;;;;;;7.45;1.95;;;;;;;;;;5011173;28;20053;-77
2023/04/14 08:11:12;;;;;;;11.05;2.10;;;;;;;;;;5014212;28;20545;-77
2023/04/14 08:13:39;;;;;;;8.48;1.75;;;;;;;;;;5006236;28;20810;-77
2023/04/14 08:16:05;;;;;;;7.10;1.90;;;;;;;;;;5020200;28;21125;-77
2023/04/14 08:18:32;;;;;;;10.52;2.40;;;;;;;;;;5006523;28;21010;-77
2023/04/14 08:20:58;;;;;;;5.40;1.92;;;;;;;;;;5009705;28;20532;-77
2023/04/14 08:23:24;;;;;;;5.90;1.45;;;;;;;;;;5013046;28;20493;-77
2023/04/14 08:25:51;;;;;;;6.85;1.52;;;;;;;;;;5015425;28;20145;-78
2023/04/14 08:28:17;;;;;;;7.45;1.50;;;;;;;;;;5016966;28;20054;-77
2023/04/14 08:30:44;;;;;;;9.30;1.60;;;;;;;;;;5007375;28;20168;-77
2023/04/14 08:33:10;;;;;;;7.22;1.65;;;;;;;;;;5007665;28;21006;-77
2023/04/14 08:35:37;;;;;;;8.23;1.63;;;;;;;;;;5005498;28;20069;-77
2023/04/14 08:38:08;;;;;;;7.30;2.00;;;;;;;;;;5005732;28;21018;-77
2023/04/14 08:40:37;;;;;;;6.90;1.45;;;;;;;;;;5012878;28;20063;-77
2023/04/14 08:43:04;;;;;;;6.93;1.55;;;;;;;;;;5011108;28;20120;-77
2023/04/14 08:45:34;;;;;;;6.03;1.55;;;;;;;;;;5018402;28;20055;-78
2023/04/14 08:48:02;;;;;;;5.60;1.50;;;;;;;;;;5008758;28;20129;-78
2023/04/14 08:50:31;;;;;;;5.65;1.40;;;;;;;;;;5017622;28;20058;-77
2023/04/14 08:52:59;;;;;;;7.85;2.13;;;;;;;;;;5025377;28;20211;-78
2023/04/14 08:55:26;;;;;;;6.82;1.30;;;;;;;;;;5013644;28;20061;-77
2023/04/14 08:57:53;;;;;;;6.20;1.20;;;;;;;;;;5005492;28;20166;-77
2023/04/14 09:00:20;;;;;;;8.38;1.70;;;;;;;;;;5017703;28;20531;-77
2023/04/14 09:02:46;;;;;;;4.95;1.10;;;;;;;;;;5019550;28;20065;-78
2023/04/14 09:05:14;;;;;;;7.32;1.30;;;;;;;;;;5017059;28;20061;-77
2023/04/14 09:07:41;;;;;;;5.68;1.38;;;;;;;;;;5017137;28;20081;-77
2023/04/14 09:10:09;;;;;;;6.05;1.60;;;;;;;;;;5012423;28;21728;-77
2023/04/14 09:12:37;;;;;;;6.57;1.27;;;;;;;;;;5007039;28;20058;-77
2023/04/14 09:15:07;;;;;;;6.70;1.45;;;;;;;;;;5021602;28;20168;-78
2023/04/14 09:17:35;;;;;;;7.18;1.40;;;;;;;;;;5005965;28;20062;-77
2023/04/14 09:20:01;;;;;;;5.93;1.38;;;;;;;;;;5006051;28;20941;-77
2023/04/14 09:22:48;;;;;;;6.30;1.35;;;;;;;;;;5008774;28;20084;-77
2023/04/14 09:25:14;;;;;;;7.75;1.42;;;;;;;;;;5019161;28;20145;-78
2023/04/14 09:27:42;;;;;;;10.68;1.88;;;;;;;;;;5009444;28;20135;-77
2023/04/14 09:30:09;;;;;;;5.68;1.05;;;;;;;;;;5023060;28;20054;-77
2023/04/14 09:32:35;;;;;;;5.05;1.23;;;;;;;;;;5011378;28;20053;-77
2023/04/14 09:35:02;;;;;;;6.20;1.30;;;;;;;;;;5005312;28;20058;-77
2023/04/14 09:37:40;;;;;;;5.00;1.30;;;;;;;;;;5011678;28;20104;-77
2023/04/14 09:40:07;;;;;;;4.88;1.50;;;;;;;;;;5009962;28;20058;-77
2023/04/14 09:42:41;;;;;;;9.32;2.03;;;;;;;;;;5007801;28;20067;-77
2023/04/14 09:45:08;;;;;;;6.57;1.50;;;;;;;;;;5008599;28;20055;-77
2023/04/14 09:47:34;;;;;;;4.85;1.40;;;;;;;;;;5012371;28;20053;-78
2023/04/14 09:50:02;;;;;;;7.20;1.63;;;;;;;;;;5019586;28;20141;-77
2023/04/14 09:52:37;;;;;;;7.00;1.50;;;;;;;;;;5022320;28;20061;-78
2023/04/14 09:55:06;;;;;;;5.60;1.58;;;;;;;;;;5004603;28;20061;-77
2023/04/14 09:57:33;;;;;;;4.68;1.40;;;;;;;;;;5009634;28;20137;-77
2023/04/14 10:00:00;;;;;;;6.43;1.58;;;;;;;;;;5016842;28;20583;-77
2023/04/14 10:02:26;;;;;;;7.50;1.48;;;;;;;;;;5003632;28;20062;-76
2023/04/14 10:05:03;;;;;;;6.55;1.40;;;;;;;;;;5003347;28;22038;-76
2023/04/14 10:07:30;;;;;;;5.60;1.42;;;;;;;;;;5017469;28;20058;-77
2023/04/14 10:09:57;;;;;;;5.70;1.50;;;;;;;;;;5004030;28;20058;-77
2023/04/14 10:12:23;;;;;;;7.47;1.45;;;;;;;;;;5008549;28;20064;-76
2023/04/14 10:14:50;;;;;;;5.15;1.40;;;;;;;;;;5007251;28;20523;-77
2023/04/14 10:17:18;;;;;;;4.65;1.48;;;;;;;;;;5007454;28;20600;-77
2023/04/14 10:19:45;;;;;;;5.63;1.90;;;;;;;;;;5023343;28;20058;-77
2023/04/14 10:22:11;;;;;;;6.13;1.52;;;;;;;;;;5021652;28;20066;-76
2023/04/14 10:24:39;;;;;;;9.07;2.05;;;;;;;;;;5022885;28;20915;-76
2023/04/14 10:27:05;;;;;;;6.25;1.70;;;;;;;;;;5019908;28;20136;-76
2023/04/14 10:29:31;;;;;;;6.00;1.80;;;;;;;;;;5004968;28;20054;-76
2023/04/14 10:32:02;;;;;;;7.60;1.67;;;;;;;;;;5004531;28;20054;-76
2023/04/14 10:34:29;;;;;;;6.35;1.90;;;;;;;;;;5001899;28;20051;-77
2023/04/14 10:37:10;;;;;;;5.93;1.50;;;;;;;;;;5001881;28;20532;-77
2023/04/14 10:39:37;;;;;;;6.90;1.88;;;;;;;;;;5014628;28;20049;-77
2023/04/14 10:42:03;;;;;;;6.00;1.92;;;;;;;;;;5026889;28;20065;-77
2023/04/14 10:44:31;;;;;;;7.13;2.03;;;;;;;;;;5021316;28;20077;-77
2023/04/14 10:46:59;;;;;;;6.63;1.98;;;;;;;;;;5009709;28;20457;-77
2023/04/14 10:49:36;;;;;;;7.65;2.00;;;;;;;;;;5007472;28;20555;-76
2023/04/14 10:52:02;;;;;;;8.75;1.85;;;;;;;;;;5006649;28;20051;-76
2023/04/14 10:54:47;;;;;;;8.15;2.08;;;;;;;;;;5007716;28;20066;-76
2023/04/14 10:57:14;;;;;;;5.22;1.70;;;;;;;;;;5008748;28;20057;-76
2023/04/14 10:59:47;;;;;;;6.32;1.75;;;;;;;;;;5013413;28;20981;-77
2023/04/14 11:02:21;;;;;;;6.47;1.88;;;;;;;;;;5012706;28;20062;-77
2023/04/14 11:05:02;;;;;;;5.47;1.50;;;;;;;;;;5023654;28;20056;-77
2023/04/14 11:07:30;;;;;;;6.03;1.60;;;;;;;;;;5014415;28;20058;-77
2023/04/14 11:09:57;;;;;;;4.60;1.48;;;;;;;;;;5014506;28;20069;-77
2023/04/14 11:12:26;;;;;;;6.63;1.55;;;;;;;;;;5013359;28;20050;-77
2023/04/14 11:15:00;;;;;;;4.93;1.50;;;;;;;;;;5008561;28;20535;-77
2023/04/14 11:17:31;;;;;;;4.75;1.17;;;;;;;;;;5014545;28;20068;-76
2023/04/14 11:19:58;;;;;;;6.50;1.60;;;;;;;;;;5007409;28;20054;-77
2023/04/14 11:22:42;;;;;;;5.05;1.10;;;;;;;;;;5010842;28;20489;-77
2023/04/14 11:25:12;;;;;;;4.32;1.40;;;;;;;;;;5007267;28;21029;-76
2023/04/14 11:27:39;;;;;;;;;;;;;;;;;;5006420;28;20563;-76
2023/04/14 11:30:06;;;;;;;6.90;1.63;;;;;;;;;;5014533;28;46247;-77
2023/04/14 11:32:52;;;;;;;4.63;1.40;;;;;;;;;;5012496;28;21021;-76
2023/04/14 11:35:19;;;;;;;4.25;1.50;;;;;;;;;;5021110;28;20665;-76
2023/04/14 11:37:46;;;;;;;5.65;1.45;;;;;;;;;;5023935;28;20085;-77
2023/04/14 11:40:13;;;;;;;3.95;1.20;;;;;;;;;;5022844;28;20054;-76
2023/04/14 11:42:44;;;;;;;5.35;1.50;;;;;;;;;;5015671;28;20074;-77
2023/04/14 11:45:12;;;;;;;6.88;1.40;;;;;;;;;;5006624;28;20054;-78
2023/04/14 11:47:38;;;;;;;4.88;1.50;;;;;;;;;;5009781;28;20144;-77
2023/04/14 11:50:06;;;;;;;6.78;1.70;;;;;;;;;;5017406;28;20054;-77
2023/04/14 11:52:33;;;;;;;5.07;1.45;;;;;;;;;;5014163;28;21123;-76
2023/04/14 11:55:00;;;;;;;5.15;1.23;;;;;;;;;;5026264;28;20076;-76
2023/04/14 11:57:27;;;;;;;5.85;1.17;;;;;;;;;;5014506;28;20065;-76
2023/04/14 11:59:54;;;;;;;5.50;1.50;;;;;;;;;;5009248;28;20142;-76
2023/04/14 12:02:21;;;;;;;4.38;1.20;;;;;;;;;;5015127;28;20056;-76
2023/04/14 12:04:49;;;;;;;6.43;1.20;;;;;;;;;;5005694;28;20054;-76
2023/04/14 12:07:17;;;;;;;6.43;1.30;;;;;;;;;;5022736;28;20468;-77
2023/04/14 12:09:44;;;;;;;3.65;1.20;;;;;;;;;;5018111;28;20148;-76
2023/04/14 12:12:11;;;;;;;5.78;1.63;;;;;;;;;;5014776;28;20054;-77
2023/04/14 12:14:39;;;;;;;8.15;1.70;;;;;;;;;;5010520;28;20062;-77
2023/04/14 12:17:08;;;;;;;4.68;1.20;;;;;;;;;;5017326;28;20141;-76
2023/04/14 12:19:35;;;;;;;6.10;1.48;;;;;;;;;;5008738;28;20137;-76
2023/04/14 12:22:02;;;;;;;6.00;1.67;;;;;;;;;;5021606;28;20054;-76
2023/04/14 12:24:39;;;;;;;7.07;1.55;;;;;;;;;;5012948;28;20145;-77
2023/04/14 12:27:08;;;;;;;7.13;1.27;;;;;;;;;;5015026;28;20085;-77
2023/04/14 12:29:38;;;;;;;4.05;1.20;;;;;;;;;;5010509;28;20053;-78
2023/04/14 12:32:10;;;;;;;5.45;1.48;;;;;;;;;;5012137;28;20058;-76
2023/04/14 12:34:37;;;;;;;4.45;1.50;;;;;;;;;;5022985;28;20062;-76
2023/04/14 12:37:07;;;;;;;6.95;1.55;;;;;;;;;;5005251;28;20050;-77
2023/04/14 12:39:49;;;;;;;5.03;1.40;;;;;;;;;;5006345;28;20054;-76
2023/04/14 12:42:16;;;;;;;5.00;1.60;;;;;;;;;;5018635;28;20132;-77
2023/04/14 12:44:52;;;;;;;4.38;1.20;;;;;;;;;;5016580;28;20480;-76
2023/04/14 12:47:29;;;;;;;3.97;1.23;;;;;;;;;;5014170;28;20081;-76
2023/04/14 12:49:57;;;;;;;5.43;1.30;;;;;;;;;;5022715;28;20062;-76
2023/04/14 12:52:33;;;;;;;4.18;1.30;;;;;;;;;;5025238;28;20155;-78
2023/04/14 12:55:01;;;;;;;9.15;1.40;;;;;;;;;;5022826;28;20054;-77
2023/04/14 12:57:28;;;;;;;5.78;1.30;;;;;;;;;;5014021;28;20054;-77
2023/04/14 12:59:54;;;;;;;5.70;1.50;;;;;;;;;;5013433;28;20572;-77
2023/04/14 13:02:21;;;;;;;5.63;1.40;;;;;;;;;;5004662;28;20061;-76
2023/04/14 13:04:48;;;;;;;3.53;1.23;;;;;;;;;;5009320;28;20068;-76
2023/04/14 13:07:14;;;;;;;7.55;1.45;;;;;;;;;;5007489;28;20528;-76
2023/04/14 13:09:42;;;;;;;4.80;1.17;;;;;;;;;;5019287;28;20058;-76
2023/04/14 13:12:08;;;;;;;5.35;1.00;;;;;;;;;;5024824;28;20081;-77
2023/04/14 13:14:35;;;;;;;7.32;1.65;;;;;;;;;;5014478;28;20145;-77
2023/04/14 13:17:04;;;;;;;4.60;1.30;;;;;;;;;;5012904;28;20058;-76
2023/04/14 13:19:31;;;;;;;5.90;1.52;;;;;;;;;;5024869;28;20145;-77
2023/04/14 13:21:57;;;;;;;5.82;1.48;;;;;;;;;;5016978;28;20192;-76
2023/04/14 13:24:24;;;;;;;4.90;1.55;;;;;;;;;;5017519;28;20049;-76
2023/04/14 13:26:50;;;;;;;3.05;1.20;;;;;;;;;;5022699;28;20144;-76
2023/04/14 13:29:17;;;;;;;5.85;1.20;;;;;;;;;;5018318;28;20054;-76
2023/04/14 13:31:43;;;;;;;5.28;1.40;;;;;;;;;;5012760;28;20188;-76
2023/04/14 13:34:10;;;;;;;5.10;1.00;;;;;;;;;;5015666;28;20054;-76
2023/04/14 13:36:36;;;;;;;4.93;1.20;;;;;;;;;;5009856;28;20054;-76
2023/04/14 13:39:03;;;;;;;5.40;1.23;;;;;;;;;;5015750;28;20058;-76
2023/04/14 13:41:29;;;;;;;5.15;1.17;;;;;;;;;;5017256;28;20180;-76
2023/04/14 13:43:57;;;;;;;4.82;1.38;;;;;;;;;;5022518;28;20112;-77
2023/04/14 13:46:23;;;;;;;3.72;1.20;;;;;;;;;;5009223;28;20070;-76
2023/04/14 13:48:49;;;;;;;4.45;1.00;;;;;;;;;;5005023;28;20102;-76
2023/04/14 13:51:16;;;;;;;5.22;1.20;;;;;;;;;;5007911;28;20060;-76
2023/04/14 13:53:42;;;;;;;4.78;1.20;;;;;;;;;;5010203;28;20056;-76
2023/04/14 13:56:09;;;;;;;6.00;1.30;;;;;;;;;;5011852;28;20077;-77
2023/04/14 13:58:36;;;;;;;5.72;1.30;;;;;;;;;;5022725;28;20104;-76
2023/04/14 14:01:09;;;;;;;5.05;1.25;;;;;;;;;;5018364;28;20054;-77
2023/04/14 14:03:39;;;;;;;4.63;1.52;;;;;;;;;;5015425;28;20477;-76
2023/04/14 14:06:06;;;;;;;4.72;1.10;;;;;;;;;;5003971;28;20050;-76
2023/04/14 14:08:36;;;;;;;4.78;0.93;;;;;;;;;;5014187;28;20133;-76
2023/04/14 14:11:04;;;;;;;5.82;1.33;;;;;;;;;;5021404;28;20153;-75
2023/04/14 14:13:31;;;;;;;6.32;1.40;;;;;;;;;;5022742;28;20081;-75
2023/04/14 14:15:58;;;;;;;5.55;1.35;;;;;;;;;;5012785;28;20058;-77
2023/04/14 14:18:26;;;;;;;4.40;1.23;;;;;;;;;;5008761;28;20089;-76
2023/04/14 14:20:52;;;;;;;4.40;1.05;;;;;;;;;;5023044;28;20080;-77
2023/04/14 14:23:18;;;;;;;5.07;1.25;;;;;;;;;;5020719;28;20053;-76
2023/04/14 14:25:45;;;;;;;6.65;1.40;;;;;;;;;;5010817;28;20050;-76
2023/04/14 14:28:11;;;;;;;5.05;1.17;;;;;;;;;;5018706;28;20898;-76
2023/04/14 14:30:38;;;;;;;5.43;1.23;;;;;;;;;;5017543;28;20104;-75
2023/04/14 14:33:04;;;;;;;6.50;1.30;;;;;;;;;;5020479;28;20141;-77
2023/04/14 14:35:31;;;;;;;6.95;1.45;;;;;;;;;;5022949;28;20050;-77
2023/04/14 14:37:57;;;;;;;5.53;1.10;;;;;;;;;;5016197;28;20058;-76
2023/04/14 14:40:25;;;;;;;4.03;1.10;;;;;;;;;;5016879;28;20054;-76
2023/04/14 14:42:51;;;;;;;4.53;1.15;;;;;;;;;;5006970;28;20065;-76